Aérodrome :
LOGIN :

S'inscrire | Disclaimer

   EN    FR    IT 

 










Légende :    VFR   VFR Marginal   IFR   IFR Intensif   IFR Très Intensif
Visi : 
Plafond : 
>= 8 km
>= 3000ft
5 à 8 km
1000 à 3000 ft
1500m à 5 km
500 à 1000 ft
800 à 1500m
200 à 500 ft
< 800m
< 200 ft
Symboles :   Orages  Brouillard  Fortes neiges  Fortes précipitations  Vent > 20 kt
SIGMETs :   Divers  Orages  Givrage  Turbulence  Onde Orograph.  Cendres Volcan.







- Altitude de l'aérodrome : 2096 ft
- Code IATA : AUR
- Voir les cartes d'approche


LFLW - Aurillac

DERNIER METAR :
  • 262000Z AUTO 36006KT CAVOK 07/M04 Q1026

METARs EXPIRÉS :
  • 261930Z AUTO 36005KT 330V030 CAVOK 07/M05 Q1026
  • 261900Z AUTO 36006KT 330V040 CAVOK 08/M06 Q1026
  • 261830Z AUTO 36008KT 330V030 CAVOK 08/M07 Q1025
  • 261800Z AUTO 01010KT 340V040 CAVOK 09/M08 Q1025
  • 261730Z AUTO 01010KT CAVOK 10/M09 Q1025

TAF TAF LFLW
Valide du 26 à 15h jusqu'au 27 à 00h UTC


261400Z 2615/2624 02012KT CAVOK
TEMPO 2615/2617 02015G25KT
BECMG 2619/2621 02004KT
Pas de NOTAMs connus pour ce terrain.
1 SIGMET publié pour la FIR Bordeaux (LFBB) :
 
Turbulence forte
LFBB SIGMET 5 VALID 261600/262000 LFPW
LFBB BORDEAUX FIR/UIR SEV TURB FCST WI N4245 E00230 - N4215 E00230 - N4230 E00145 - N4245 E00200 - N4245 E00230 SFC/FL070 STNR WKN=



MET'MAP, la Météo Aéronautique d'un coup d'oeil ! - Copyright ORBIFLY Décembre 2007 - Disclaimer

ORBIFLY MET'MAP TEAM :

Programmation & Développement : Alexandra Zaïnal
Conception & Développement : Baudouin d'Aumeries
Co-Programmation & Développement : Marc-Olivier Méhu
Soutien technique & logistique : Manuel Goepfert

Contact : metmap@orbifly.com




SOURCES & CREDITS :

   NOAA